Grand Batture — WYP8397 — position and weather

sailwx.info

Track history (hours):
 
Tides and Currents Weather Stations Pressure Air Temp Water Temp Dewpoint Dewpoint Depression Visibility Wind Speed Wind Dir Waves Ship Positions

Grand Batture

Owner: OMEGA PROTEIN INC., Moss Point, MS. More information available from US FCC via Universal Licensing System and Coast Guard Vessel Documentation Center.

Last reported at 2017-Sep-20 23:39 UTC. Time now 2017-Sep-24 15:49 UTC.
Position N 29°36' W 092°17'.

Length 49 m; draft 3.6 m.

Type: Fishing. MMSI: 367088180.

Date/timePositionNaut miles runAvg speedWind from/ knotsBaromVisibWave heightAir tempDewpointWater temp
2017-Sep-20 23:39N 29°36' W 092°17'1 9.1
2017-Sep-20 23:30N 29°37' W 092°17'4 9.0
2017-Sep-20 23:00N 29°41' W 092°15'5 9.4
2017-Sep-20 22:30N 29°45' W 092°12'4 7.8
2017-Sep-20 22:00N 29°48' W 092°08'2 3.2
2017-Sep-20 21:30N 29°49' W 092°08'0 0.0
2017-Sep-20 21:00N 29°49' W 092°08'0 0.0
2017-Sep-20 20:30N 29°49' W 092°08'0 0.0
2017-Sep-20 20:00N 29°49' W 092°08'0 0.0
2017-Sep-20 19:30N 29°49' W 092°08'0 0.0
2017-Sep-20 19:00N 29°49' W 092°08'0 0.0
2017-Sep-20 18:30N 29°49' W 092°08'0 0.0
2017-Sep-20 18:00N 29°49' W 092°08'0 0.0
2017-Sep-20 17:30N 29°49' W 092°08'1 1.4
2017-Sep-20 17:00N 29°48' W 092°08'2 4.9
2017-Sep-20 16:30N 29°47' W 092°10'4 8.6
2017-Sep-20 16:00N 29°44' W 092°14'4 7.6
2017-Sep-20 15:27N 29°40' W 092°15'5 0.2
2017-Sep-19 10:33N 29°36' W 092°17'0 8.1
2017-Sep-19 10:30N 29°36' W 092°17'4 8.3
2017-Sep-19 10:00N 29°40' W 092°15'4 8.5
2017-Sep-19 09:31N 29°44' W 092°14'4 8.8
2017-Sep-19 09:01N 29°47' W 092°10'2 4.3
2017-Sep-19 08:31N 29°48' W 092°08'1 2.1
2017-Sep-19 08:01N 29°49' W 092°08'0 0.0
2017-Sep-19 07:30N 29°49' W 092°08'0 0.0
2017-Sep-19 07:01N 29°49' W 092°08'0 0.0
2017-Sep-19 06:31N 29°49' W 092°08'0 0.0
2017-Sep-19 06:01N 29°49' W 092°08'0 0.0
2017-Sep-19 05:30N 29°49' W 092°08'0 0.0
2017-Sep-19 05:01N 29°49' W 092°08'0 0.0
2017-Sep-19 04:31N 29°49' W 092°08'2 3.5
2017-Sep-19 04:01N 29°48' W 092°08'3 6.1
2017-Sep-19 03:31N 29°46' W 092°11'5 8.8
2017-Sep-19 02:59N 29°42' W 092°15'6 0.2
2017-Sep-18 00:59N 29°37' W 092°17'4 9.3
2017-Sep-18 00:31N 29°41' W 092°15'5 9.3
2017-Sep-18 00:01N 29°45' W 092°13'4 8.0
2017-Sep-17 23:31N 29°47' W 092°09'2 4.7
2017-Sep-17 23:01N 29°49' W 092°08'0 0.0
2017-Sep-17 22:30N 29°49' W 092°08'0 0.0
2017-Sep-17 22:00N 29°49' W 092°08'0 0.0
2017-Sep-17 21:30N 29°49' W 092°08'0 0.0
2017-Sep-17 21:00N 29°49' W 092°08'0 0.0
2017-Sep-17 20:30N 29°49' W 092°08'0 0.0
2017-Sep-17 20:00N 29°49' W 092°08'0 0.0
2017-Sep-17 19:30N 29°49' W 092°08'0 0.0
2017-Sep-15 21:15N 29°49' W 092°08'0 0.9
2017-Sep-15 21:00N 29°49' W 092°08'2 4.9
2017-Sep-15 20:30N 29°47' W 092°09'4 7.8
2017-Sep-15 20:00N 29°45' W 092°13'4 8.6
2017-Sep-15 19:30N 29°41' W 092°15'6 0.3
2017-Sep-15 00:08N 29°36' W 092°18'1 9.4
2017-Sep-15 00:00N 29°37' W 092°17'4 8.8
2017-Sep-14 23:31N 29°41' W 092°15'4 8.8
2017-Sep-14 23:00N 29°45' W 092°13'5 9.0
2017-Sep-14 22:31N 29°47' W 092°09'2 4.2
2017-Sep-14 22:01N 29°49' W 092°08'0 0.0
2017-Sep-14 21:31N 29°49' W 092°08'0 0.0
2017-Sep-14 21:00N 29°49' W 092°08'0 0.0
2017-Sep-14 20:31N 29°49' W 092°08'0 0.0
2017-Sep-14 20:01N 29°49' W 092°08'0 0.0
2017-Sep-14 19:30N 29°49' W 092°08'0 0.0
2017-Sep-14 19:01N 29°49' W 092°08'0 0.0
2017-Sep-14 18:31N 29°49' W 092°08'0 0.0
2017-Sep-14 18:01N 29°49' W 092°08'2 3.6
2017-Sep-14 17:30N 29°47' W 092°09'3 6.5
2017-Sep-14 17:00N 29°46' W 092°12'4 8.6
2017-Sep-14 16:30N 29°42' W 092°15'  
2017-Sep-11 03:03N 29°36' W 092°18'1 8.8
2017-Sep-11 02:55N 29°37' W 092°17'4 8.9
2017-Sep-11 02:31N 29°40' W 092°15'5 9.0
2017-Sep-11 01:59N 29°44' W 092°14'4 7.8
2017-Sep-11 01:31N 29°47' W 092°10'2 4.0
2017-Sep-11 01:00N 29°48' W 092°08'  
Track history (hours):
 
Tides and Currents Weather Stations Pressure Air Temp Water Temp Dewpoint Dewpoint Depression Visibility Wind Speed Wind Dir Waves Ship Positions

Grand Batture

Owner: OMEGA PROTEIN INC., Moss Point, MS. More information available from US FCC via Universal Licensing System and Coast Guard Vessel Documentation Center.

Last reported at 2017-Sep-20 23:39 UTC. Time now 2017-Sep-24 15:49 UTC.
Position N 29°36' W 092°17'.

Length 49 m; draft 3.6 m.

Type: Fishing. MMSI: 367088180.

Date/timePositionNaut miles runAvg speedWind from/ knotsBaromVisibWave heightAir tempDewpointWater temp
2017-Sep-20 23:39N 29°36' W 092°17'1 9.1
2017-Sep-20 23:30N 29°37' W 092°17'4 9.0
2017-Sep-20 23:00N 29°41' W 092°15'5 9.4
2017-Sep-20 22:30N 29°45' W 092°12'4 7.8
2017-Sep-20 22:00N 29°48' W 092°08'2 3.2
2017-Sep-20 21:30N 29°49' W 092°08'0 0.0
2017-Sep-20 21:00N 29°49' W 092°08'0 0.0
2017-Sep-20 20:30N 29°49' W 092°08'0 0.0
2017-Sep-20 20:00N 29°49' W 092°08'0 0.0
2017-Sep-20 19:30N 29°49' W 092°08'0 0.0
2017-Sep-20 19:00N 29°49' W 092°08'0 0.0
2017-Sep-20 18:30N 29°49' W 092°08'0 0.0
2017-Sep-20 18:00N 29°49' W 092°08'0 0.0
2017-Sep-20 17:30N 29°49' W 092°08'1 1.4
2017-Sep-20 17:00N 29°48' W 092°08'2 4.9
2017-Sep-20 16:30N 29°47' W 092°10'4 8.6
2017-Sep-20 16:00N 29°44' W 092°14'4 7.6
2017-Sep-20 15:27N 29°40' W 092°15'5 0.2
2017-Sep-19 10:33N 29°36' W 092°17'0 8.1
2017-Sep-19 10:30N 29°36' W 092°17'4 8.3
2017-Sep-19 10:00N 29°40' W 092°15'4 8.5
2017-Sep-19 09:31N 29°44' W 092°14'4 8.8
2017-Sep-19 09:01N 29°47' W 092°10'2 4.3
2017-Sep-19 08:31N 29°48' W 092°08'1 2.1
2017-Sep-19 08:01N 29°49' W 092°08'0 0.0
2017-Sep-19 07:30N 29°49' W 092°08'0 0.0
2017-Sep-19 07:01N 29°49' W 092°08'0 0.0
2017-Sep-19 06:31N 29°49' W 092°08'0 0.0
2017-Sep-19 06:01N 29°49' W 092°08'0 0.0
2017-Sep-19 05:30N 29°49' W 092°08'0 0.0
2017-Sep-19 05:01N 29°49' W 092°08'0 0.0
2017-Sep-19 04:31N 29°49' W 092°08'2 3.5
2017-Sep-19 04:01N 29°48' W 092°08'3 6.1
2017-Sep-19 03:31N 29°46' W 092°11'5 8.8
2017-Sep-19 02:59N 29°42' W 092°15'6 0.2
2017-Sep-18 00:59N 29°37' W 092°17'4 9.3
2017-Sep-18 00:31N 29°41' W 092°15'5 9.3
2017-Sep-18 00:01N 29°45' W 092°13'4 8.0
2017-Sep-17 23:31N 29°47' W 092°09'2 4.7
2017-Sep-17 23:01N 29°49' W 092°08'0 0.0
2017-Sep-17 22:30N 29°49' W 092°08'0 0.0
2017-Sep-17 22:00N 29°49' W 092°08'0 0.0
2017-Sep-17 21:30N 29°49' W 092°08'0 0.0
2017-Sep-17 21:00N 29°49' W 092°08'0 0.0
2017-Sep-17 20:30N 29°49' W 092°08'0 0.0
2017-Sep-17 20:00N 29°49' W 092°08'0 0.0
2017-Sep-17 19:30N 29°49' W 092°08'0 0.0
2017-Sep-15 21:15N 29°49' W 092°08'0 0.9
2017-Sep-15 21:00N 29°49' W 092°08'2 4.9
2017-Sep-15 20:30N 29°47' W 092°09'4 7.8
2017-Sep-15 20:00N 29°45' W 092°13'4 8.6
2017-Sep-15 19:30N 29°41' W 092°15'6 0.3
2017-Sep-15 00:08N 29°36' W 092°18'1 9.4
2017-Sep-15 00:00N 29°37' W 092°17'4 8.8
2017-Sep-14 23:31N 29°41' W 092°15'4 8.8
2017-Sep-14 23:00N 29°45' W 092°13'5 9.0
2017-Sep-14 22:31N 29°47' W 092°09'2 4.2
2017-Sep-14 22:01N 29°49' W 092°08'0 0.0
2017-Sep-14 21:31N 29°49' W 092°08'0 0.0
2017-Sep-14 21:00N 29°49' W 092°08'0 0.0
2017-Sep-14 20:31N 29°49' W 092°08'0 0.0
2017-Sep-14 20:01N 29°49' W 092°08'0 0.0
2017-Sep-14 19:30N 29°49' W 092°08'0 0.0
2017-Sep-14 19:01N 29°49' W 092°08'0 0.0
2017-Sep-14 18:31N 29°49' W 092°08'0 0.0
2017-Sep-14 18:01N 29°49' W 092°08'2 3.6
2017-Sep-14 17:30N 29°47' W 092°09'3 6.5
2017-Sep-14 17:00N 29°46' W 092°12'4 8.6
2017-Sep-14 16:30N 29°42' W 092°15'  
2017-Sep-11 03:03N 29°36' W 092°18'1 8.8
2017-Sep-11 02:55N 29°37' W 092°17'4 8.9
2017-Sep-11 02:31N 29°40' W 092°15'5 9.0
2017-Sep-11 01:59N 29°44' W 092°14'4 7.8
2017-Sep-11 01:31N 29°47' W 092°10'2 4.0
2017-Sep-11 01:00N 29°48' W 092°08'  

Dump ship's entire track history